createdAt,value
2017-08-26T00:00:51.195Z,0
2017-08-26T00:01:50.583Z,0
2017-08-26T00:02:51.228Z,0
2017-08-26T00:03:50.613Z,0
2017-08-26T00:04:51.283Z,0
2017-08-26T00:06:05.906Z,0
2017-08-26T00:06:51.328Z,0
2017-08-26T00:07:51.356Z,0
2017-08-26T00:08:51.378Z,0
2017-08-26T00:09:51.079Z,0
2017-08-26T00:10:51.083Z,0
2017-08-26T00:11:51.465Z,0
2017-08-26T00:12:51.443Z,0
2017-08-26T00:14:06.082Z,0
2017-08-26T00:14:51.194Z,0
2017-08-26T00:16:06.135Z,0
2017-08-26T00:17:06.169Z,0
2017-08-26T00:17:51.566Z,0
2017-08-26T00:18:51.301Z,0
2017-08-26T00:19:51.618Z,0
2017-08-26T00:20:51.654Z,0
2017-08-26T00:21:51.671Z,0
2017-08-26T00:22:51.703Z,0
2017-08-26T00:23:51.722Z,0
2017-08-26T00:24:51.430Z,0
2017-08-26T00:25:51.746Z,0
2017-08-26T00:26:51.785Z,0
2017-08-26T00:27:51.823Z,0
2017-08-26T00:28:51.525Z,0
2017-08-26T00:30:06.468Z,0
2017-08-26T00:30:51.878Z,0
2017-08-26T00:31:51.272Z,0
2017-08-26T00:32:51.613Z,0
2017-08-26T00:33:51.632Z,0
2017-08-26T00:34:51.977Z,0
2017-08-26T00:35:51.988Z,0
2017-08-26T00:36:52.001Z,0
2017-08-26T00:38:06.644Z,0
2017-08-26T00:38:52.045Z,0
2017-08-26T00:39:51.789Z,0
2017-08-26T00:41:51.825Z,0
2017-08-26T00:42:51.840Z,0
2017-08-26T00:43:52.170Z,0
2017-08-26T00:45:06.813Z,0
2017-08-26T00:45:52.223Z,0
2017-08-26T00:46:52.252Z,0
2017-08-26T00:47:52.273Z,0
2017-08-26T00:48:52.293Z,0
2017-08-26T00:49:52.323Z,0
2017-08-26T00:50:52.345Z,0
2017-08-26T00:51:52.035Z,0
2017-08-26T00:53:06.979Z,0
2017-08-26T00:53:52.416Z,0
2017-08-26T00:55:07.034Z,0
2017-08-26T00:55:52.462Z,0
2017-08-26T00:56:52.492Z,0
2017-08-26T00:57:52.509Z,0
2017-08-26T00:58:52.502Z,0
2017-08-26T00:59:52.212Z,0
2017-08-26T01:00:52.576Z,0
2017-08-26T01:01:52.588Z,0
2017-08-26T01:02:52.614Z,0
2017-08-26T01:03:52.631Z,0
2017-08-26T01:04:52.670Z,0
2017-08-26T01:06:07.294Z,0
2017-08-26T01:06:52.720Z,0
2017-08-26T01:07:52.729Z,0
2017-08-26T01:08:52.736Z,0
2017-08-26T01:09:52.130Z,0
2017-08-26T01:10:52.477Z,0
2017-08-26T01:11:52.840Z,0
2017-08-26T01:12:52.534Z,0
2017-08-26T01:13:52.874Z,0
2017-08-26T01:14:52.565Z,0
2017-08-26T01:15:52.925Z,0
2017-08-26T01:17:07.523Z,0
2017-08-26T01:18:07.237Z,0
2017-08-26T01:19:52.677Z,0
2017-08-26T01:20:52.400Z,0
2017-08-26T01:22:53.085Z,0
2017-08-26T01:23:53.088Z,0
2017-08-26T01:24:52.783Z,0
2017-08-26T01:25:52.507Z,0
2017-08-26T01:27:07.769Z,0
2017-08-26T01:27:53.179Z,0
2017-08-26T01:28:53.214Z,0
2017-08-26T01:29:53.225Z,0
2017-08-26T01:30:53.274Z,0
2017-08-26T01:31:53.300Z,0
2017-08-26T01:33:07.902Z,0
2017-08-26T01:33:53.316Z,0
2017-08-26T01:34:53.325Z,0
2017-08-26T01:38:53.432Z,0
2017-08-26T01:39:53.457Z,0
2017-08-26T01:40:53.468Z,0
2017-08-26T01:42:53.534Z,0
2017-08-26T01:43:53.545Z,0
2017-08-26T01:44:53.580Z,0
2017-08-26T01:46:08.187Z,0
2017-08-26T01:46:53.633Z,0
2017-08-26T01:47:53.634Z,0
2017-08-26T01:49:08.261Z,0
2017-08-26T01:49:53.684Z,0
2017-08-26T01:50:53.713Z,0
2017-08-26T01:51:53.744Z,0
2017-08-26T01:52:53.734Z,0
2017-08-26T01:53:53.789Z,0
2017-08-26T01:55:08.394Z,0
2017-08-26T01:56:08.104Z,0
2017-08-26T01:57:53.859Z,0
2017-08-26T01:58:53.565Z,0
2017-08-26T01:59:53.913Z,0
2017-08-26T02:00:53.922Z,0
2017-08-26T02:01:53.964Z,0
2017-08-26T02:03:08.570Z,0
2017-08-26T02:03:54.012Z,0
2017-08-26T02:05:08.619Z,0
2017-08-26T02:05:54.030Z,0
2017-08-26T02:06:53.747Z,0
2017-08-26T02:09:08.721Z,0
2017-08-26T02:09:54.126Z,0
2017-08-26T02:10:53.841Z,0
2017-08-26T02:11:54.170Z,0
2017-08-26T02:12:54.201Z,0
2017-08-26T02:13:54.217Z,0
2017-08-26T02:15:08.856Z,0
2017-08-26T02:15:53.957Z,0
2017-08-26T02:17:08.881Z,0
2017-08-26T02:17:54.008Z,0
2017-08-26T02:18:54.317Z,0
2017-08-26T02:20:08.970Z,0
2017-08-26T02:20:54.076Z,0
2017-08-26T02:21:54.103Z,0
2017-08-26T02:22:54.414Z,0
2017-08-26T02:23:53.829Z,0
2017-08-26T02:25:09.055Z,0
2017-08-26T02:25:54.183Z,0
2017-08-26T02:27:08.812Z,0
2017-08-26T02:28:09.136Z,0
2017-08-26T02:28:54.570Z,0
2017-08-26T02:29:54.584Z,0
2017-08-26T02:30:54.622Z,0
2017-08-26T02:31:54.611Z,0
2017-08-26T02:32:54.660Z,0
2017-08-26T02:33:54.667Z,0
2017-08-26T02:34:54.392Z,0
2017-08-26T02:35:54.411Z,0
2017-08-26T02:36:54.732Z,0
2017-08-26T02:37:54.751Z,0
2017-08-26T02:38:54.481Z,0
2017-08-26T02:39:54.506Z,0
2017-08-26T02:40:54.835Z,0
2017-08-26T02:43:09.154Z,0
2017-08-26T02:43:54.588Z,0
2017-08-26T02:44:54.904Z,0
2017-08-26T02:45:54.631Z,0
2017-08-26T02:46:54.968Z,0
2017-08-26T02:47:54.997Z,0
2017-08-26T02:48:54.991Z,0
2017-08-26T02:49:55.053Z,0
2017-08-26T02:50:55.060Z,0
2017-08-26T02:52:09.668Z,0
2017-08-26T02:52:55.081Z,0
2017-08-26T02:53:55.135Z,0
2017-08-26T02:54:54.828Z,0
2017-08-26T02:55:55.181Z,0
2017-08-26T02:56:55.188Z,0
2017-08-26T02:57:55.218Z,0
2017-08-26T02:58:55.224Z,0
2017-08-26T02:59:55.241Z,0
2017-08-26T03:00:55.285Z,0
2017-08-26T03:01:55.306Z,0
2017-08-26T03:02:55.334Z,0
2017-08-26T03:03:55.019Z,0
2017-08-26T03:04:55.421Z,0
2017-08-26T03:05:55.396Z,0
2017-08-26T03:06:55.425Z,0
2017-08-26T03:08:09.718Z,0
2017-08-26T03:08:55.462Z,0
2017-08-26T03:10:10.081Z,0
2017-08-26T03:11:55.206Z,0
2017-08-26T03:12:55.550Z,0
2017-08-26T03:13:55.594Z,0
2017-08-26T03:14:55.586Z,0
2017-08-26T03:15:55.613Z,0
2017-08-26T03:16:55.645Z,0
2017-08-26T03:18:09.933Z,0
2017-08-26T03:18:55.693Z,0
2017-08-26T03:19:55.408Z,0
2017-08-26T03:20:55.736Z,0
2017-08-26T03:21:55.754Z,0
2017-08-26T03:22:55.763Z,0
2017-08-26T03:24:10.396Z,0
2017-08-26T03:24:55.813Z,0
2017-08-26T03:26:10.441Z,0
2017-08-26T03:26:55.869Z,0
2017-08-26T03:28:55.910Z,4
2017-08-26T03:29:55.918Z,0
2017-08-26T03:31:10.553Z,0
2017-08-26T03:31:55.967Z,4
2017-08-26T03:32:56.012Z,4
2017-08-26T03:34:10.627Z,4
2017-08-26T03:34:55.725Z,4
2017-08-26T03:36:10.659Z,8
2017-08-26T03:36:56.076Z,8
2017-08-26T03:37:56.104Z,8
2017-08-26T03:38:56.113Z,8
2017-08-26T03:40:10.437Z,12
2017-08-26T03:40:56.191Z,12
2017-08-26T03:41:55.890Z,12
2017-08-26T03:42:56.213Z,16
2017-08-26T03:43:56.253Z,16
2017-08-26T03:44:55.949Z,24
2017-08-26T03:45:55.974Z,28
2017-08-26T03:46:56.314Z,36
2017-08-26T03:47:56.325Z,40
2017-08-26T03:48:56.359Z,44
2017-08-26T03:49:56.388Z,52
2017-08-26T03:50:56.093Z,60
2017-08-26T03:51:56.407Z,68
2017-08-26T03:53:56.462Z,100
2017-08-26T03:55:11.089Z,116
2017-08-26T03:55:56.495Z,132
2017-08-26T03:56:56.539Z,148
2017-08-26T03:57:56.556Z,164
2017-08-26T03:58:56.551Z,176
2017-08-26T04:00:11.208Z,192
2017-08-26T04:00:56.622Z,200
2017-08-26T04:02:11.237Z,212
2017-08-26T04:02:56.658Z,216
2017-08-26T04:03:56.059Z,216
2017-08-26T04:04:56.715Z,220
2017-08-26T04:06:11.325Z,236
2017-08-26T04:06:56.773Z,256
2017-08-26T04:08:56.485Z,324
2017-08-26T04:09:56.819Z,372
2017-08-26T04:10:56.845Z,424
2017-08-26T04:11:56.858Z,484
2017-08-26T04:12:56.571Z,544
2017-08-26T04:13:56.902Z,608
2017-08-26T04:14:56.939Z,676
2017-08-26T04:15:56.633Z,740
2017-08-26T04:16:56.984Z,808
2017-08-26T04:17:56.983Z,872
2017-08-26T04:18:57.031Z,944
2017-08-26T04:19:57.048Z,1016
2017-08-26T04:20:57.084Z,1092
2017-08-26T04:21:56.782Z,1172
2017-08-26T04:22:57.404Z,1248
2017-08-26T04:23:57.121Z,1332
2017-08-26T04:24:57.150Z,1412
2017-08-26T04:25:57.167Z,1492
2017-08-26T04:27:11.802Z,1588
2017-08-26T04:27:57.241Z,1656
2017-08-26T04:28:57.253Z,1740
2017-08-26T04:29:56.939Z,1828
2017-08-26T04:30:57.283Z,1920
2017-08-26T04:31:57.312Z,2008
2017-08-26T04:32:57.021Z,2100
2017-08-26T04:33:57.354Z,2200
2017-08-26T04:34:57.348Z,2312
2017-08-26T04:36:12.009Z,2460
2017-08-26T04:36:57.101Z,2552
2017-08-26T04:38:12.050Z,2712
2017-08-26T04:38:57.465Z,2820
2017-08-26T04:39:57.489Z,2956
2017-08-26T04:40:57.519Z,3084
2017-08-26T04:41:57.241Z,3192
2017-08-26T04:43:12.151Z,3348
2017-08-26T04:43:57.587Z,3460
2017-08-26T04:44:57.575Z,3636
2017-08-26T04:45:57.636Z,3912
2017-08-26T04:46:57.626Z,4384
2017-08-26T04:47:57.683Z,5820
2017-08-26T04:48:57.376Z,6480
2017-08-26T04:49:57.405Z,6204
2017-08-26T04:50:57.401Z,5844
2017-08-26T04:51:57.751Z,6192
2017-08-26T04:52:57.777Z,7116
2017-08-26T04:53:57.492Z,8224
2017-08-26T04:54:57.523Z,8500
2017-08-26T04:55:57.522Z,8720
2017-08-26T04:56:57.552Z,7644
2017-08-26T04:57:57.895Z,8008
2017-08-26T04:59:12.528Z,9376
2017-08-26T04:59:57.621Z,9792
2017-08-26T05:00:57.659Z,9856
2017-08-26T05:02:12.272Z,9600
2017-08-26T05:02:58.016Z,7916
2017-08-26T05:03:58.037Z,8940
2017-08-26T05:04:58.083Z,7544
2017-08-26T05:05:58.070Z,7780
2017-08-26T05:06:58.131Z,7636
2017-08-26T05:08:12.751Z,6736
2017-08-26T05:08:58.158Z,5632
2017-08-26T05:09:57.557Z,4320
2017-08-26T05:11:12.828Z,4580
2017-08-26T05:11:57.930Z,5316
2017-08-26T05:12:58.235Z,4872
2017-08-26T05:13:57.980Z,4408
2017-08-26T05:15:12.587Z,5020
2017-08-26T05:15:58.030Z,4692
2017-08-26T05:16:58.033Z,4916
2017-08-26T05:17:58.381Z,5260
2017-08-26T05:18:58.412Z,5576
2017-08-26T05:19:58.438Z,5856
2017-08-26T05:20:58.131Z,6124
2017-08-26T05:21:58.476Z,6432
2017-08-26T05:22:58.198Z,6676
2017-08-26T05:24:13.156Z,6792
2017-08-26T05:24:58.250Z,6872
2017-08-26T05:25:58.565Z,6848
2017-08-26T05:26:58.286Z,6724
2017-08-26T05:27:58.309Z,6632
2017-08-26T05:28:58.340Z,6804
2017-08-26T05:30:13.266Z,7804
2017-08-26T05:30:58.704Z,6624
2017-08-26T05:31:58.403Z,7400
2017-08-26T05:33:13.345Z,7976
2017-08-26T05:34:13.364Z,6616
2017-08-26T05:34:58.801Z,6624
2017-08-26T05:36:13.421Z,6684
2017-08-26T05:36:58.521Z,7236
2017-08-26T05:37:58.556Z,6504
2017-08-26T05:38:58.894Z,7236
2017-08-26T05:39:58.614Z,14592
2017-08-26T05:40:58.951Z,6524
2017-08-26T05:41:58.972Z,6636
2017-08-26T05:42:58.677Z,6900
2017-08-26T05:43:59.017Z,7324
2017-08-26T05:44:58.706Z,7892
2017-08-26T05:45:59.064Z,12368
2017-08-26T05:47:59.102Z,9408
2017-08-26T05:48:59.134Z,9920
2017-08-26T05:49:59.137Z,10556
2017-08-26T05:50:59.196Z,20384
2017-08-26T05:52:58.915Z,12672
2017-08-26T05:53:58.605Z,25536
2017-08-26T05:54:59.294Z,22400
2017-08-26T05:56:13.892Z,23040
2017-08-26T05:56:59.351Z,15328
2017-08-26T05:58:13.940Z,15488
2017-08-26T05:58:59.060Z,23552
2017-08-26T05:59:59.077Z,14468
2017-08-26T06:00:59.429Z,23552
2017-08-26T06:02:14.292Z,24928
2017-08-26T06:02:59.473Z,15028
2017-08-26T06:03:59.170Z,19520
2017-08-26T06:05:14.129Z,24800
2017-08-26T06:05:59.246Z,25344
2017-08-26T06:07:14.173Z,25472
2017-08-26T06:07:59.599Z,27552
2017-08-26T06:08:59.298Z,30432
2017-08-26T06:09:59.351Z,31168
2017-08-26T06:11:13.967Z,29696
2017-08-26T06:12:58.771Z,20832
2017-08-26T06:14:14.371Z,35008
2017-08-26T06:14:59.478Z,34688
2017-08-26T06:15:59.518Z,34272
2017-08-26T06:16:59.201Z,33664
2017-08-26T06:18:14.479Z,35712
2017-08-26T06:18:59.885Z,35264
2017-08-26T06:19:59.598Z,36000
2017-08-26T06:21:14.232Z,36576
2017-08-26T06:21:59.976Z,37312
2017-08-26T06:22:59.700Z,38080
2017-08-26T06:23:59.721Z,37696
2017-08-26T06:25:00.070Z,36448
2017-08-26T06:25:59.772Z,34528
2017-08-26T06:27:14.719Z,36256
2017-08-26T06:27:59.844Z,36000
2017-08-26T06:28:59.855Z,29440
2017-08-26T06:30:00.201Z,36032
2017-08-26T06:30:59.933Z,33504
2017-08-26T06:32:00.304Z,33856
2017-08-26T06:32:59.995Z,32000
2017-08-26T06:34:14.911Z,32512
2017-08-26T06:35:00.049Z,35232
2017-08-26T06:36:00.394Z,29024
2017-08-26T06:37:14.712Z,38080
2017-08-26T06:38:00.447Z,38784
2017-08-26T06:39:00.485Z,38080
2017-08-26T06:40:59.891Z,35392
2017-08-26T06:42:00.552Z,37536
2017-08-26T06:43:00.598Z,38336
2017-08-26T06:44:00.311Z,37952
2017-08-26T06:45:00.663Z,37888
2017-08-26T06:46:00.377Z,38560
2017-08-26T06:47:15.306Z,41440
2017-08-26T06:48:00.760Z,42304
2017-08-26T06:49:00.759Z,41088
2017-08-26T06:50:15.439Z,43232
2017-08-26T06:51:00.848Z,43904
2017-08-26T06:52:00.867Z,44800
2017-08-26T06:53:00.577Z,42304
2017-08-26T06:54:00.925Z,43968
2017-08-26T06:55:00.650Z,46016
2017-08-26T06:56:01.002Z,43744
2017-08-26T06:57:15.614Z,45632
2017-08-26T06:58:15.338Z,47776
2017-08-26T06:59:01.082Z,47264
2017-08-26T07:00:00.468Z,47008
2017-08-26T07:01:01.150Z,47456
2017-08-26T07:02:01.180Z,48960
2017-08-26T07:03:00.907Z,48416
2017-08-26T07:04:01.239Z,48768
2017-08-26T07:05:15.874Z,45312
2017-08-26T07:06:01.314Z,42496
2017-08-26T07:07:15.918Z,43360
2017-08-26T07:08:01.379Z,40672
2017-08-26T07:09:01.394Z,41152
2017-08-26T07:10:01.444Z,44512
2017-08-26T07:11:01.464Z,44512
2017-08-26T07:12:00.859Z,41984
2017-08-26T07:13:01.513Z,40704
2017-08-26T07:15:01.584Z,35264
2017-08-26T07:16:01.317Z,19744
2017-08-26T07:17:01.356Z,17056
2017-08-26T07:18:01.052Z,16608
2017-08-26T07:19:01.719Z,27488
2017-08-26T07:20:01.448Z,22592
2017-08-26T07:21:01.781Z,16736
2017-08-26T07:22:01.813Z,25120
2017-08-26T07:23:16.450Z,19104
2017-08-26T07:24:01.557Z,12088
2017-08-26T07:25:01.904Z,10176
2017-08-26T07:26:01.635Z,9172
2017-08-26T07:27:01.986Z,8740
2017-08-26T07:28:01.679Z,8324
2017-08-26T07:29:02.047Z,8400
2017-08-26T07:31:02.101Z,9556
2017-08-26T07:32:02.112Z,10360
2017-08-26T07:33:02.161Z,11976
2017-08-26T07:34:02.179Z,10916
2017-08-26T07:35:02.213Z,10752
2017-08-26T07:36:01.903Z,11308
2017-08-26T07:37:16.851Z,20640
2017-08-26T07:38:02.286Z,16480
2017-08-26T07:39:02.328Z,24512
2017-08-26T07:40:02.047Z,21952
2017-08-26T07:41:02.377Z,24160
2017-08-26T07:42:17.035Z,26912
2017-08-26T07:43:02.439Z,28512
2017-08-26T07:44:02.145Z,28096
2017-08-26T07:45:02.502Z,29728
2017-08-26T07:47:17.146Z,29888
2017-08-26T07:48:02.272Z,28448
2017-08-26T07:49:02.615Z,19680
2017-08-26T07:50:02.334Z,18464
2017-08-26T07:51:02.349Z,26688
2017-08-26T07:52:02.430Z,25824
2017-08-26T07:53:17.322Z,18240
2017-08-26T07:54:02.461Z,21216
2017-08-26T07:55:02.154Z,18560
2017-08-26T07:56:02.827Z,22560
2017-08-26T07:57:02.217Z,27552
2017-08-26T07:58:02.554Z,22208
2017-08-26T07:59:17.195Z,25024
2017-08-26T08:01:02.969Z,22656
2017-08-26T08:02:02.976Z,17984
2017-08-26T08:03:03.003Z,15856
2017-08-26T08:04:17.645Z,14532
2017-08-26T08:05:03.095Z,14004
2017-08-26T08:06:03.105Z,12688
2017-08-26T08:07:03.140Z,11664
2017-08-26T08:08:03.145Z,10812
2017-08-26T08:09:17.484Z,10052
2017-08-26T08:10:02.890Z,9484
2017-08-26T08:11:17.544Z,8488
2017-08-26T08:12:02.971Z,7644
2017-08-26T08:14:03.344Z,5848
2017-08-26T08:15:03.380Z,5248
2017-08-26T08:16:03.390Z,4904
2017-08-26T08:17:03.435Z,4824
2017-08-26T08:18:03.451Z,4928
2017-08-26T08:19:03.179Z,5056
2017-08-26T08:20:03.521Z,5176
2017-08-26T08:21:03.208Z,5396
2017-08-26T08:22:03.252Z,5700
2017-08-26T08:23:03.590Z,5808
2017-08-26T08:24:03.300Z,5780
2017-08-26T08:25:18.238Z,5524
2017-08-26T08:26:03.678Z,5312
2017-08-26T08:27:03.686Z,4952
2017-08-26T08:28:03.100Z,4676
2017-08-26T08:29:03.771Z,4472
2017-08-26T08:30:18.380Z,4424
2017-08-26T08:31:03.820Z,4440
2017-08-26T08:32:03.845Z,4436
2017-08-26T08:33:03.873Z,4424
2017-08-26T08:34:03.877Z,4416
2017-08-26T08:35:03.605Z,4448
2017-08-26T08:37:03.974Z,4552
2017-08-26T08:38:18.613Z,4704
2017-08-26T08:39:18.613Z,4844
2017-08-26T08:40:18.662Z,4972
2017-08-26T08:41:03.797Z,5160
2017-08-26T08:42:03.789Z,5440
2017-08-26T08:43:18.745Z,5728
2017-08-26T08:44:04.155Z,5816
2017-08-26T08:45:04.186Z,6004
2017-08-26T08:46:04.214Z,6240
2017-08-26T08:47:04.242Z,6608
2017-08-26T08:48:03.967Z,7116
2017-08-26T08:49:04.296Z,7564
2017-08-26T08:50:18.608Z,8188
2017-08-26T08:51:04.338Z,8592
2017-08-26T08:52:04.392Z,8836
2017-08-26T08:53:04.072Z,8872
2017-08-26T08:54:18.394Z,9152
2017-08-26T08:55:19.068Z,9456
2017-08-26T08:56:04.159Z,9576
2017-08-26T08:57:04.195Z,9676
2017-08-26T08:58:04.516Z,9648
2017-08-26T08:59:04.567Z,9744
2017-08-26T09:00:04.573Z,9784
2017-08-26T09:01:19.219Z,9832
2017-08-26T09:02:04.640Z,9812
2017-08-26T09:03:19.274Z,8932
2017-08-26T09:04:04.375Z,8480
2017-08-26T09:05:04.395Z,8016
2017-08-26T09:06:04.747Z,7812
2017-08-26T09:07:04.465Z,7756
2017-08-26T09:08:04.520Z,7612
2017-08-26T09:09:04.839Z,7524
2017-08-26T09:10:04.531Z,7488
2017-08-26T09:11:04.890Z,7548
2017-08-26T09:12:19.521Z,7880
2017-08-26T09:14:04.654Z,8228
2017-08-26T09:15:04.983Z,8508
2017-08-26T09:16:19.297Z,8328
2017-08-26T09:18:04.766Z,7940
2017-08-26T09:19:04.479Z,8072
2017-08-26T09:20:04.801Z,8296
2017-08-26T09:21:19.432Z,8460
2017-08-26T09:22:05.156Z,8652
2017-08-26T09:23:05.210Z,8644
2017-08-26T09:24:19.512Z,8484
2017-08-26T09:25:19.864Z,8532
2017-08-26T09:26:04.984Z,8604
2017-08-26T09:27:19.908Z,8824
2017-08-26T09:28:19.945Z,9128
2017-08-26T09:29:19.645Z,9552
2017-08-26T09:30:05.064Z,9996
2017-08-26T09:31:05.117Z,10392
2017-08-26T09:32:05.435Z,10264
2017-08-26T09:33:05.480Z,10016
2017-08-26T09:34:05.491Z,10984
2017-08-26T09:35:05.542Z,12144
2017-08-26T09:36:05.560Z,12820
2017-08-26T09:37:05.258Z,16072
2017-08-26T09:38:05.619Z,16480
2017-08-26T09:39:05.300Z,15392
2017-08-26T09:40:05.330Z,14852
2017-08-26T09:41:05.695Z,14356
2017-08-26T09:42:05.738Z,13860
2017-08-26T09:43:05.759Z,13752
2017-08-26T09:44:20.365Z,12672
2017-08-26T09:45:05.471Z,11936
2017-08-26T09:46:05.822Z,11132
2017-08-26T09:47:05.540Z,10576
2017-08-26T09:48:05.873Z,10132
2017-08-26T09:49:05.910Z,9776
2017-08-26T09:50:05.949Z,9372
2017-08-26T09:51:05.967Z,8928
2017-08-26T09:52:05.679Z,8436
2017-08-26T09:53:05.711Z,8048
2017-08-26T09:54:05.733Z,7836
2017-08-26T09:55:06.070Z,7792
2017-08-26T09:56:06.117Z,7892
2017-08-26T09:57:06.129Z,8004
2017-08-26T09:58:05.851Z,7956
2017-08-26T09:59:05.551Z,7776
2017-08-26T10:00:20.501Z,7476
2017-08-26T10:01:06.258Z,7312
2017-08-26T10:02:06.275Z,7204
2017-08-26T10:03:05.963Z,7224
2017-08-26T10:04:20.925Z,7340
2017-08-26T10:05:06.044Z,7380
2017-08-26T10:06:06.382Z,7424
2017-08-26T10:07:06.401Z,7600
2017-08-26T10:08:06.446Z,7720
2017-08-26T10:09:20.733Z,7880
2017-08-26T10:11:06.208Z,7648
2017-08-26T10:12:06.554Z,7564
2017-08-26T10:13:06.588Z,7400
2017-08-26T10:14:06.585Z,7272
2017-08-26T10:15:21.235Z,7152
2017-08-26T10:16:06.016Z,7004
2017-08-26T10:17:06.371Z,6804
2017-08-26T10:18:06.718Z,6748
2017-08-26T10:19:21.030Z,6924
2017-08-26T10:20:06.765Z,7148
2017-08-26T10:21:06.783Z,7376
2017-08-26T10:22:21.418Z,7564
2017-08-26T10:23:06.835Z,7620
2017-08-26T10:24:06.878Z,7648
2017-08-26T10:25:21.484Z,7848
2017-08-26T10:26:06.947Z,8020
2017-08-26T10:27:06.972Z,8280
2017-08-26T10:28:06.989Z,9200
2017-08-26T10:29:07.008Z,9824
2017-08-26T10:30:06.403Z,10056
2017-08-26T10:31:06.746Z,11160
2017-08-26T10:32:07.101Z,11548
2017-08-26T10:34:21.729Z,12120
2017-08-26T10:35:21.459Z,11832
2017-08-26T10:36:06.878Z,12064
2017-08-26T10:37:07.278Z,12296
2017-08-26T10:38:07.250Z,12056
2017-08-26T10:39:07.285Z,11852
2017-08-26T10:40:06.981Z,11856
2017-08-26T10:41:07.332Z,12104
2017-08-26T10:42:21.959Z,12176
2017-08-26T10:43:07.405Z,12064
2017-08-26T10:44:07.115Z,12152
2017-08-26T10:45:07.125Z,12388
2017-08-26T10:46:07.164Z,12708
2017-08-26T10:47:36.697Z,12740
2017-08-26T10:48:07.516Z,12868
2017-08-26T10:49:07.558Z,12772
2017-08-26T10:50:22.183Z,12632
2017-08-26T10:51:07.621Z,12864
2017-08-26T10:52:21.925Z,13452
2017-08-26T10:53:22.280Z,11944
2017-08-26T10:54:07.364Z,11488
2017-08-26T10:55:07.715Z,11296
2017-08-26T10:56:07.421Z,11360
2017-08-26T10:57:07.769Z,11440
2017-08-26T10:58:07.810Z,11452
2017-08-26T10:59:07.849Z,11356
2017-08-26T11:00:07.549Z,11560
2017-08-26T11:01:07.264Z,12196
2017-08-26T11:02:22.198Z,12900
2017-08-26T11:03:36.827Z,12728
2017-08-26T11:04:07.977Z,12740
2017-08-26T11:05:22.593Z,13536
2017-08-26T11:06:07.708Z,13672
2017-08-26T11:07:08.053Z,13384
2017-08-26T11:08:08.096Z,13072
2017-08-26T11:09:07.796Z,12836
2017-08-26T11:11:08.159Z,13204
2017-08-26T11:12:07.866Z,13192
2017-08-26T11:14:08.235Z,13576
2017-08-26T11:15:08.280Z,13956
2017-08-26T11:16:08.315Z,14360
2017-08-26T11:17:08.347Z,14404
2017-08-26T11:18:08.049Z,14232
2017-08-26T11:20:08.433Z,13516
2017-08-26T11:21:08.459Z,13584
2017-08-26T11:22:08.504Z,13672
2017-08-26T11:23:08.501Z,14040
2017-08-26T11:24:08.557Z,13788
2017-08-26T11:26:08.596Z,13148
2017-08-26T11:27:08.625Z,13512
2017-08-26T11:28:08.635Z,13280
2017-08-26T11:29:08.660Z,13060
2017-08-26T11:30:23.307Z,12980
2017-08-26T11:31:08.415Z,12772
2017-08-26T11:32:08.757Z,12496
2017-08-26T11:33:08.153Z,12576
2017-08-26T11:34:08.833Z,12688
2017-08-26T11:35:23.445Z,12968
2017-08-26T11:36:23.489Z,12844
2017-08-26T11:37:08.583Z,12636
2017-08-26T11:38:23.534Z,12368
2017-08-26T11:39:08.958Z,12220
2017-08-26T11:40:09.031Z,11988
2017-08-26T11:41:09.003Z,11792
2017-08-26T11:42:09.045Z,11496
2017-08-26T11:43:23.352Z,11256
2017-08-26T11:44:09.098Z,11060
2017-08-26T11:45:09.126Z,10708
2017-08-26T11:46:09.144Z,10456
2017-08-26T11:47:09.202Z,10324
2017-08-26T11:48:23.811Z,10208
2017-08-26T11:49:09.272Z,10076
2017-08-26T11:50:23.866Z,9892
2017-08-26T11:51:08.997Z,9948
2017-08-26T11:52:09.016Z,10016
2017-08-26T11:53:09.052Z,10160
2017-08-26T11:54:23.981Z,10580
2017-08-26T11:55:09.101Z,10820
2017-08-26T11:56:09.121Z,10484
2017-08-26T11:57:09.483Z,10376
2017-08-26T11:58:09.510Z,10340
2017-08-26T11:59:23.827Z,10628
2017-08-26T12:00:08.616Z,10740
2017-08-26T12:01:09.607Z,10436
2017-08-26T12:02:09.596Z,10596
2017-08-26T12:03:09.325Z,10304
2017-08-26T12:04:09.672Z,10240
2017-08-26T12:05:24.306Z,10108
2017-08-26T12:06:09.451Z,10184
2017-08-26T12:07:09.758Z,10036
2017-08-26T12:08:09.817Z,10620
2017-08-26T12:09:09.811Z,10644
2017-08-26T12:10:09.521Z,10740
2017-08-26T12:11:09.870Z,11036
2017-08-26T12:12:09.923Z,11056
2017-08-26T12:14:09.947Z,10652
2017-08-26T12:15:09.659Z,10460
2017-08-26T12:16:24.611Z,10400
2017-08-26T12:17:10.051Z,10208
2017-08-26T12:18:09.734Z,10368
2017-08-26T12:19:10.107Z,10188
2017-08-26T12:21:10.155Z,9092
2017-08-26T12:22:24.788Z,8820
2017-08-26T12:23:10.225Z,8436
2017-08-26T12:24:10.224Z,8408
2017-08-26T12:25:09.951Z,8716
2017-08-26T12:26:09.970Z,9252
2017-08-26T12:27:10.338Z,9312
2017-08-26T12:29:10.073Z,9544
2017-08-26T12:30:10.415Z,9404
2017-08-26T12:31:10.744Z,9248
2017-08-26T12:32:10.460Z,9264
2017-08-26T12:33:10.165Z,9240
2017-08-26T12:34:10.529Z,9224
2017-08-26T12:35:10.542Z,9032
2017-08-26T12:36:10.260Z,9132
2017-08-26T12:37:10.603Z,8732
2017-08-26T12:38:25.232Z,8224
2017-08-26T12:39:10.691Z,7948
2017-08-26T12:40:10.683Z,7700
2017-08-26T12:41:10.719Z,7636
2017-08-26T12:42:10.751Z,7692
2017-08-26T12:43:10.772Z,7668
2017-08-26T12:44:10.782Z,7772
2017-08-26T12:45:10.844Z,8444
2017-08-26T12:46:10.871Z,8756
2017-08-26T12:47:10.892Z,9048
2017-08-26T12:48:25.528Z,8900
2017-08-26T12:49:25.537Z,9428
2017-08-26T12:50:10.961Z,9024
2017-08-26T12:51:10.683Z,8796
2017-08-26T12:52:10.707Z,8688
2017-08-26T12:53:11.083Z,8808
2017-08-26T12:54:25.678Z,8312
2017-08-26T12:55:11.113Z,8336
2017-08-26T12:56:25.738Z,7948
2017-08-26T12:57:11.155Z,7864
2017-08-26T12:58:11.213Z,7856
2017-08-26T12:59:11.231Z,7892
2017-08-26T13:01:11.278Z,7916
2017-08-26T13:02:11.325Z,8156
2017-08-26T13:03:11.322Z,8132
2017-08-26T13:04:11.362Z,8092
2017-08-26T13:05:25.983Z,8052
2017-08-26T13:06:11.435Z,7904
2017-08-26T13:08:26.080Z,7816
2017-08-26T13:09:26.107Z,8012
2017-08-26T13:10:40.731Z,8200
2017-08-26T13:11:11.547Z,8336
2017-08-26T13:12:11.282Z,9160
2017-08-26T13:13:11.297Z,9368
2017-08-26T13:14:11.328Z,9808
2017-08-26T13:15:11.364Z,9720
2017-08-26T13:16:10.737Z,9724
2017-08-26T13:17:11.425Z,9540
2017-08-26T13:18:11.444Z,9768
2017-08-26T13:19:11.791Z,9632
2017-08-26T13:20:11.481Z,9252
2017-08-26T13:21:26.437Z,8876
2017-08-26T13:22:26.473Z,8036
2017-08-26T13:23:11.896Z,7720
2017-08-26T13:24:26.534Z,7924
2017-08-26T13:25:26.556Z,7768
2017-08-26T13:26:26.569Z,7068
2017-08-26T13:27:12.010Z,6852
2017-08-26T13:28:11.392Z,6864
2017-08-26T13:29:26.340Z,6892
2017-08-26T13:30:12.121Z,6900
2017-08-26T13:31:11.488Z,7036
2017-08-26T13:32:12.129Z,7124
2017-08-26T13:33:12.220Z,6972
2017-08-26T13:34:12.205Z,6720
2017-08-26T13:35:12.243Z,6520
2017-08-26T13:36:12.255Z,6420
2017-08-26T13:37:12.288Z,6476
2017-08-26T13:38:11.985Z,6668
2017-08-26T13:39:12.370Z,6916
2017-08-26T13:40:12.378Z,7016
2017-08-26T13:41:12.397Z,6880
2017-08-26T13:42:12.125Z,6748
2017-08-26T13:43:12.456Z,6716
2017-08-26T13:44:12.517Z,6696
2017-08-26T13:45:27.117Z,6688
2017-08-26T13:46:12.232Z,6684
2017-08-26T13:47:12.249Z,6632
2017-08-26T13:48:26.872Z,6636
2017-08-26T13:49:27.238Z,6656
2017-08-26T13:50:12.635Z,6724
2017-08-26T13:51:12.685Z,6832
2017-08-26T13:52:12.711Z,6904
2017-08-26T13:53:12.745Z,7028
2017-08-26T13:54:27.354Z,7112
2017-08-26T13:55:12.796Z,7256
2017-08-26T13:56:12.826Z,7420
2017-08-26T13:57:27.432Z,7508
2017-08-26T13:58:12.883Z,7564
2017-08-26T13:59:12.937Z,7736
2017-08-26T14:00:12.935Z,7848
2017-08-26T14:01:12.640Z,7996
2017-08-26T14:02:12.984Z,7836
2017-08-26T14:03:27.297Z,7720
2017-08-26T14:04:12.411Z,7764
2017-08-26T14:05:13.071Z,8160
2017-08-26T14:06:27.704Z,7992
2017-08-26T14:07:13.142Z,8104
2017-08-26T14:08:27.766Z,8020
2017-08-26T14:09:13.188Z,7812
2017-08-26T14:10:12.583Z,7992